Terminal Aerodrome Forecast
Issued by NWS Greer, SC

Home | Current Version | Previous Version | Text Only | Print | Product List | Glossary On
Versions: 1 2 3 4 5 6 7 8 9 10 11 12 13 14 15 16 17 18 19 20 21 22 23 24 25 26 27 28 29 30 31 32 33 34 35 36 37 38 39 40 41 42 43 44 45 46 47 48
828
FTUS42 KGSP 301130
TAFAVL
TAF
KAVL 301130Z 3012/3112 34005KT 6SM BR SCT015
      TEMPO 3012/3013 2SM BR BKN003
     FM301400 34005KT P6SM SCT045
     FM301600 34005KT P6SM SCT060
     FM301800 32005KT P6SM VCTS BKN060CB
     FM302100 28005KT P6SM BKN060 PROB30 3021/3101 4SM -TSRA
      OVC040CB
     FM310900 VRB02KT 4SM BR SCT150=

USA.gov is the U.S. government's official web portal to all federal, state and local government web resources and services.